aviador You're here:

KWLD Decoded Metar

WINFIELD/ARKANSA in KS, USA
Report Time2017-09-20 19:54:00
UTC Time2017-09-20 20:06:23
Flight Rules vfr VFR
Wind200° at 12 kt
W.Decomp.*RWY 17: 11.0 kt HW 4.9 kt RCW
RWY 13: 5.3 kt HW 10.8 kt RCW
W.Rank200° ranks 9
Current wind is above 200° avg. (11.3)
Visibility9999 m
Phenomena:N/A
Clouds:Broken 043 Hf
Expected CloudBase > 4,000 ft AGL from Temp-Dew spread
Ceiling4,300 ft
Temp32°C (ISA +19)
Dew Point22°C (55% RH)
Heat Index35.6°C
QNH1009 hPa
Density Alt3,832 ft
Elevation1,148 ft
Report Wrong Elevation
Raw Report
KWLD 201954Z AUTO 20012KT 10SM BKN043 32/22 A2980 RMK AO2 SLP077
T03220217=

Extra information for KWLD:More info

Metar Taf Metar & Taf Last 4 Metars F.Rules Stats Wind Profile Meteogram Temp Stats Airport Information Weather charts Add Link Nearby VenuesMetar ALERT Operation Metar Decoded Social comments

AIRNAV info for KWLD